sensor_id;sensor_type;location;lat;lon;timestamp;temperature;humidity
27258;DHT22;62045;49.986;8.672;2023-02-14T00:04:55;15.90;52.80
27258;DHT22;62045;49.986;8.672;2023-02-14T00:09:57;15.90;52.70
27258;DHT22;62045;49.986;8.672;2023-02-14T00:14:57;16.00;52.50
27258;DHT22;62045;49.986;8.672;2023-02-14T00:19:58;16.10;52.40
27258;DHT22;62045;49.986;8.672;2023-02-14T00:25:00;16.20;52.20
27258;DHT22;62045;49.986;8.672;2023-02-14T00:30:01;16.20;52.10
27258;DHT22;62045;49.986;8.672;2023-02-14T00:35:02;16.20;52.10
27258;DHT22;62045;49.986;8.672;2023-02-14T00:40:05;16.20;52.10
27258;DHT22;62045;49.986;8.672;2023-02-14T00:45:06;16.10;52.20
27258;DHT22;62045;49.986;8.672;2023-02-14T00:50:09;16.00;52.30
27258;DHT22;62045;49.986;8.672;2023-02-14T00:55:11;16.00;52.50
27258;DHT22;62045;49.986;8.672;2023-02-14T01:00:13;15.90;52.60
27258;DHT22;62045;49.986;8.672;2023-02-14T01:05:14;15.90;52.70
27258;DHT22;62045;49.986;8.672;2023-02-14T01:10:16;15.90;52.70
27258;DHT22;62045;49.986;8.672;2023-02-14T01:15:17;15.90;52.50
27258;DHT22;62045;49.986;8.672;2023-02-14T01:20:18;16.10;52.40
27258;DHT22;62045;49.986;8.672;2023-02-14T01:25:21;16.20;52.10
27258;DHT22;62045;49.986;8.672;2023-02-14T01:30:22;16.20;52.00
27258;DHT22;62045;49.986;8.672;2023-02-14T01:35:23;16.20;52.00
27258;DHT22;62045;49.986;8.672;2023-02-14T01:40:25;16.20;52.00
27258;DHT22;62045;49.986;8.672;2023-02-14T01:45:26;16.10;52.10
27258;DHT22;62045;49.986;8.672;2023-02-14T01:50:30;16.10;52.20
27258;DHT22;62045;49.986;8.672;2023-02-14T01:55:36;16.00;52.30
27258;DHT22;62045;49.986;8.672;2023-02-14T02:00:39;15.90;52.40
27258;DHT22;62045;49.986;8.672;2023-02-14T02:05:46;15.90;52.50
27258;DHT22;62045;49.986;8.672;2023-02-14T02:10:49;15.90;52.50
27258;DHT22;62045;49.986;8.672;2023-02-14T02:16:01;16.00;52.40
27258;DHT22;62045;49.986;8.672;2023-02-14T02:21:29;16.10;52.30
27258;DHT22;62045;49.986;8.672;2023-02-14T02:37:59;16.30;51.90
27258;DHT22;62045;49.986;8.672;2023-02-14T02:43:10;16.20;51.90
27258;DHT22;62045;49.986;8.672;2023-02-14T02:48:20;16.10;52.00
27258;DHT22;62045;49.986;8.672;2023-02-14T02:53:28;16.10;52.10
27258;DHT22;62045;49.986;8.672;2023-02-14T02:58:35;16.00;52.20
27258;DHT22;62045;49.986;8.672;2023-02-14T03:03:37;15.90;52.30
27258;DHT22;62045;49.986;8.672;2023-02-14T03:08:40;15.80;52.40
27258;DHT22;62045;49.986;8.672;2023-02-14T03:13:53;15.80;52.50
27258;DHT22;62045;49.986;8.672;2023-02-14T03:19:12;15.90;52.40
27258;DHT22;62045;49.986;8.672;2023-02-14T03:24:24;16.00;52.20
27258;DHT22;62045;49.986;8.672;2023-02-14T03:29:33;16.10;52.00
27258;DHT22;62045;49.986;8.672;2023-02-14T03:34:40;16.20;51.80
27258;DHT22;62045;49.986;8.672;2023-02-14T03:39:51;16.20;51.70
27258;DHT22;62045;49.986;8.672;2023-02-14T03:44:55;16.10;51.70
27258;DHT22;62045;49.986;8.672;2023-02-14T03:50:00;16.10;51.80
27258;DHT22;62045;49.986;8.672;2023-02-14T03:55:05;16.00;51.90
27258;DHT22;62045;49.986;8.672;2023-02-14T04:00:07;15.90;52.00
27258;DHT22;62045;49.986;8.672;2023-02-14T04:05:15;15.80;52.10
27258;DHT22;62045;49.986;8.672;2023-02-14T04:10:19;15.80;52.20
27258;DHT22;62045;49.986;8.672;2023-02-14T04:15:20;15.80;52.30
27258;DHT22;62045;49.986;8.672;2023-02-14T04:20:20;15.80;52.20
27258;DHT22;62045;49.986;8.672;2023-02-14T04:25:23;15.90;52.10
27258;DHT22;62045;49.986;8.672;2023-02-14T04:30:23;16.00;51.90
27258;DHT22;62045;49.986;8.672;2023-02-14T04:35:24;16.10;51.70
27258;DHT22;62045;49.986;8.672;2023-02-14T04:40:26;16.10;51.60
27258;DHT22;62045;49.986;8.672;2023-02-14T04:45:27;16.10;51.60
27258;DHT22;62045;49.986;8.672;2023-02-14T04:50:28;16.00;51.70
27258;DHT22;62045;49.986;8.672;2023-02-14T04:55:30;16.00;51.70
27258;DHT22;62045;49.986;8.672;2023-02-14T05:00:30;15.90;51.80
27258;DHT22;62045;49.986;8.672;2023-02-14T05:05:31;15.80;52.00
27258;DHT22;62045;49.986;8.672;2023-02-14T05:10:33;15.70;52.00
27258;DHT22;62045;49.986;8.672;2023-02-14T05:15:34;15.70;52.20
27258;DHT22;62045;49.986;8.672;2023-02-14T05:20:34;15.80;52.20
27258;DHT22;62045;49.986;8.672;2023-02-14T05:25:36;15.90;52.10
27258;DHT22;62045;49.986;8.672;2023-02-14T05:30:37;16.00;51.80
27258;DHT22;62045;49.986;8.672;2023-02-14T05:35:38;16.20;51.50
27258;DHT22;62045;49.986;8.672;2023-02-14T05:40:41;16.30;51.30
27258;DHT22;62045;49.986;8.672;2023-02-14T05:45:42;16.40;51.20
27258;DHT22;62045;49.986;8.672;2023-02-14T05:50:42;16.40;51.20
27258;DHT22;62045;49.986;8.672;2023-02-14T05:55:45;16.30;51.30
27258;DHT22;62045;49.986;8.672;2023-02-14T06:00:45;16.20;51.40
27258;DHT22;62045;49.986;8.672;2023-02-14T06:05:46;16.10;51.50
27258;DHT22;62045;49.986;8.672;2023-02-14T06:10:48;16.00;51.70
27258;DHT22;62045;49.986;8.672;2023-02-14T06:15:49;15.90;51.80
27258;DHT22;62045;49.986;8.672;2023-02-14T06:20:52;15.80;52.00
27258;DHT22;62045;49.986;8.672;2023-02-14T06:25:54;15.80;52.10
27258;DHT22;62045;49.986;8.672;2023-02-14T06:30:55;16.00;51.90
27258;DHT22;62045;49.986;8.672;2023-02-14T06:35:55;16.20;51.60
27258;DHT22;62045;49.986;8.672;2023-02-14T06:41:03;16.30;51.20
27258;DHT22;62045;49.986;8.672;2023-02-14T06:46:04;16.30;51.00
27258;DHT22;62045;49.986;8.672;2023-02-14T06:51:05;16.30;51.10
27258;DHT22;62045;49.986;8.672;2023-02-14T06:56:07;16.30;51.20
27258;DHT22;62045;49.986;8.672;2023-02-14T07:01:08;16.20;51.20
27258;DHT22;62045;49.986;8.672;2023-02-14T07:06:09;16.10;51.40
27258;DHT22;62045;49.986;8.672;2023-02-14T07:11:11;16.00;51.40
27258;DHT22;62045;49.986;8.672;2023-02-14T07:16:11;15.90;51.50
27258;DHT22;62045;49.986;8.672;2023-02-14T07:21:12;15.80;51.60
27258;DHT22;62045;49.986;8.672;2023-02-14T07:26:14;15.80;51.80
27258;DHT22;62045;49.986;8.672;2023-02-14T07:31:16;15.80;51.80
27258;DHT22;62045;49.986;8.672;2023-02-14T07:36:18;16.00;51.70
27258;DHT22;62045;49.986;8.672;2023-02-14T07:41:20;16.10;51.30
27258;DHT22;62045;49.986;8.672;2023-02-14T07:46:21;16.20;51.00
27258;DHT22;62045;49.986;8.672;2023-02-14T07:51:21;16.30;51.00
27258;DHT22;62045;49.986;8.672;2023-02-14T07:56:24;16.30;50.90
27258;DHT22;62045;49.986;8.672;2023-02-14T08:01:24;16.20;51.00
27258;DHT22;62045;49.986;8.672;2023-02-14T08:06:25;16.10;51.10
27258;DHT22;62045;49.986;8.672;2023-02-14T08:11:27;16.10;51.20
27258;DHT22;62045;49.986;8.672;2023-02-14T08:16:28;16.00;51.40
27258;DHT22;62045;49.986;8.672;2023-02-14T08:21:29;15.90;51.50
27258;DHT22;62045;49.986;8.672;2023-02-14T08:26:31;15.80;51.70
27258;DHT22;62045;49.986;8.672;2023-02-14T08:31:32;15.70;51.80
27258;DHT22;62045;49.986;8.672;2023-02-14T08:36:33;15.90;51.70
27258;DHT22;62045;49.986;8.672;2023-02-14T08:41:35;16.10;51.40
27258;DHT22;62045;49.986;8.672;2023-02-14T08:46:36;16.20;51.10
27258;DHT22;62045;49.986;8.672;2023-02-14T08:51:37;16.30;50.90
27258;DHT22;62045;49.986;8.672;2023-02-14T08:56:39;16.40;50.90
27258;DHT22;62045;49.986;8.672;2023-02-14T09:01:40;16.30;50.90
27258;DHT22;62045;49.986;8.672;2023-02-14T09:06:40;16.30;51.00
27258;DHT22;62045;49.986;8.672;2023-02-14T09:11:43;16.20;51.10
27258;DHT22;62045;49.986;8.672;2023-02-14T09:16:43;16.10;51.20
27258;DHT22;62045;49.986;8.672;2023-02-14T09:21:44;16.00;51.40
27258;DHT22;62045;49.986;8.672;2023-02-14T09:26:46;15.90;51.50
27258;DHT22;62045;49.986;8.672;2023-02-14T09:31:47;15.80;51.60
27258;DHT22;62045;49.986;8.672;2023-02-14T09:36:47;15.80;51.90
27258;DHT22;62045;49.986;8.672;2023-02-14T09:42:01;15.80;51.70
27258;DHT22;62045;49.986;8.672;2023-02-14T09:47:06;15.90;51.40
27258;DHT22;62045;49.986;8.672;2023-02-14T09:52:12;16.00;50.90
27258;DHT22;62045;49.986;8.672;2023-02-14T09:57:21;16.20;50.60
27258;DHT22;62045;49.986;8.672;2023-02-14T10:02:36;16.30;50.50
27258;DHT22;62045;49.986;8.672;2023-02-14T10:07:57;16.30;50.30
27258;DHT22;62045;49.986;8.672;2023-02-14T10:13:05;16.20;50.30
27258;DHT22;62045;49.986;8.672;2023-02-14T10:18:11;16.20;50.40
27258;DHT22;62045;49.986;8.672;2023-02-14T10:23:24;16.10;50.60
27258;DHT22;62045;49.986;8.672;2023-02-14T10:28:32;16.00;50.80
27258;DHT22;62045;49.986;8.672;2023-02-14T10:33:34;15.90;50.90
27258;DHT22;62045;49.986;8.672;2023-02-14T10:38:41;15.80;51.10
27258;DHT22;62045;49.986;8.672;2023-02-14T10:43:53;15.80;51.20
27258;DHT22;62045;49.986;8.672;2023-02-14T10:49:03;15.80;51.30
27258;DHT22;62045;49.986;8.672;2023-02-14T10:54:16;15.90;51.10
27258;DHT22;62045;49.986;8.672;2023-02-14T10:59:22;16.00;50.80
27258;DHT22;62045;49.986;8.672;2023-02-14T11:04:24;16.20;50.60
27258;DHT22;62045;49.986;8.672;2023-02-14T11:09:24;16.20;50.50
27258;DHT22;62045;49.986;8.672;2023-02-14T11:14:28;16.20;50.50
27258;DHT22;62045;49.986;8.672;2023-02-14T11:19:31;16.20;50.60
27258;DHT22;62045;49.986;8.672;2023-02-14T11:24:34;16.10;50.70
27258;DHT22;62045;49.986;8.672;2023-02-14T11:29:42;16.00;50.80
27258;DHT22;62045;49.986;8.672;2023-02-14T11:34:46;15.90;51.00
27258;DHT22;62045;49.986;8.672;2023-02-14T11:39:47;15.90;51.10
27258;DHT22;62045;49.986;8.672;2023-02-14T11:44:54;15.80;51.20
27258;DHT22;62045;49.986;8.672;2023-02-14T11:49:57;15.80;51.20
27258;DHT22;62045;49.986;8.672;2023-02-14T11:54:59;16.00;52.00
27258;DHT22;62045;49.986;8.672;2023-02-14T12:00:10;16.10;52.20
27258;DHT22;62045;49.986;8.672;2023-02-14T12:05:17;16.20;51.70
27258;DHT22;62045;49.986;8.672;2023-02-14T12:10:25;16.30;51.50
27258;DHT22;62045;49.986;8.672;2023-02-14T12:15:31;16.30;51.40
27258;DHT22;62045;49.986;8.672;2023-02-14T12:20:39;16.30;51.40
27258;DHT22;62045;49.986;8.672;2023-02-14T12:25:45;16.20;51.60
27258;DHT22;62045;49.986;8.672;2023-02-14T12:30:50;16.20;51.60
27258;DHT22;62045;49.986;8.672;2023-02-14T12:35:58;16.00;51.60
27258;DHT22;62045;49.986;8.672;2023-02-14T12:41:13;16.00;51.80
27258;DHT22;62045;49.986;8.672;2023-02-14T12:52:00;15.80;52.00
27258;DHT22;62045;49.986;8.672;2023-02-14T12:57:10;15.80;52.10
27258;DHT22;62045;49.986;8.672;2023-02-14T13:08:03;16.10;51.50
27258;DHT22;62045;49.986;8.672;2023-02-14T13:13:14;16.30;51.20
27258;DHT22;62045;49.986;8.672;2023-02-14T13:18:24;16.30;51.00
27258;DHT22;62045;49.986;8.672;2023-02-14T13:23:35;16.30;51.50
27258;DHT22;62045;49.986;8.672;2023-02-14T13:28:47;16.30;51.00
27258;DHT22;62045;49.986;8.672;2023-02-14T13:33:51;16.20;51.00
27258;DHT22;62045;49.986;8.672;2023-02-14T13:38:55;16.10;51.10
27258;DHT22;62045;49.986;8.672;2023-02-14T13:43:57;16.00;51.20
27258;DHT22;62045;49.986;8.672;2023-02-14T13:49:00;15.90;51.30
27258;DHT22;62045;49.986;8.672;2023-02-14T13:54:19;15.90;51.50
27258;DHT22;62045;49.986;8.672;2023-02-14T13:59:26;15.80;51.60
27258;DHT22;62045;49.986;8.672;2023-02-14T14:04:35;15.80;51.70
27258;DHT22;62045;49.986;8.672;2023-02-14T14:10:11;15.90;51.50
27258;DHT22;62045;49.986;8.672;2023-02-14T14:15:15;16.10;51.10
27258;DHT22;62045;49.986;8.672;2023-02-14T14:20:44;16.30;50.90
27258;DHT22;62045;49.986;8.672;2023-02-14T14:25:46;16.30;51.50
27258;DHT22;62045;49.986;8.672;2023-02-14T14:30:47;16.30;50.90
27258;DHT22;62045;49.986;8.672;2023-02-14T14:35:51;16.30;50.90
27258;DHT22;62045;49.986;8.672;2023-02-14T14:40:54;16.20;50.90
27258;DHT22;62045;49.986;8.672;2023-02-14T14:45:56;16.20;51.10
27258;DHT22;62045;49.986;8.672;2023-02-14T14:50:58;16.10;51.20
27258;DHT22;62045;49.986;8.672;2023-02-14T14:56:00;16.00;51.30
27258;DHT22;62045;49.986;8.672;2023-02-14T15:01:02;15.90;51.30
27258;DHT22;62045;49.986;8.672;2023-02-14T15:06:14;15.80;51.50
27258;DHT22;62045;49.986;8.672;2023-02-14T15:11:19;15.80;51.60
27258;DHT22;62045;49.986;8.672;2023-02-14T15:16:23;16.00;51.50
27258;DHT22;62045;49.986;8.672;2023-02-14T15:21:25;16.10;51.10
27258;DHT22;62045;49.986;8.672;2023-02-14T15:26:30;16.20;50.90
27258;DHT22;62045;49.986;8.672;2023-02-14T15:31:34;16.30;50.80
27258;DHT22;62045;49.986;8.672;2023-02-14T15:36:36;16.20;50.80
27258;DHT22;62045;49.986;8.672;2023-02-14T15:41:42;16.20;50.80
27258;DHT22;62045;49.986;8.672;2023-02-14T15:46:44;16.10;50.90
27258;DHT22;62045;49.986;8.672;2023-02-14T15:51:46;16.10;51.20
27258;DHT22;62045;49.986;8.672;2023-02-14T15:56:51;16.00;51.50
27258;DHT22;62045;49.986;8.672;2023-02-14T16:01:57;16.00;51.70
27258;DHT22;62045;49.986;8.672;2023-02-14T16:07:04;15.90;52.40
27258;DHT22;62045;49.986;8.672;2023-02-14T16:12:29;15.90;55.10
27258;DHT22;62045;49.986;8.672;2023-02-14T16:17:31;16.00;57.40
27258;DHT22;62045;49.986;8.672;2023-02-14T16:22:36;16.20;58.60
27258;DHT22;62045;49.986;8.672;2023-02-14T16:27:38;16.30;56.70
27258;DHT22;62045;49.986;8.672;2023-02-14T16:32:38;16.40;55.20
27258;DHT22;62045;49.986;8.672;2023-02-14T16:37:39;16.50;54.30
27258;DHT22;62045;49.986;8.672;2023-02-14T16:42:41;16.40;53.60
27258;DHT22;62045;49.986;8.672;2023-02-14T16:47:45;16.40;53.30
27258;DHT22;62045;49.986;8.672;2023-02-14T16:52:46;16.30;53.00
27258;DHT22;62045;49.986;8.672;2023-02-14T16:57:51;16.20;52.70
27258;DHT22;62045;49.986;8.672;2023-02-14T17:02:52;16.10;52.60
27258;DHT22;62045;49.986;8.672;2023-02-14T17:07:53;16.00;52.40
27258;DHT22;62045;49.986;8.672;2023-02-14T17:12:57;16.00;52.40
27258;DHT22;62045;49.986;8.672;2023-02-14T17:17:59;16.00;51.70
27258;DHT22;62045;49.986;8.672;2023-02-14T17:23:01;16.20;51.30
27258;DHT22;62045;49.986;8.672;2023-02-14T17:28:04;16.40;51.10
27258;DHT22;62045;49.986;8.672;2023-02-14T17:33:04;16.60;51.00
27258;DHT22;62045;49.986;8.672;2023-02-14T17:38:05;16.70;51.00
27258;DHT22;62045;49.986;8.672;2023-02-14T17:43:07;16.70;51.00
27258;DHT22;62045;49.986;8.672;2023-02-14T17:48:08;16.70;51.10
27258;DHT22;62045;49.986;8.672;2023-02-14T17:53:08;16.60;51.20
27258;DHT22;62045;49.986;8.672;2023-02-14T17:58:10;16.50;51.40
27258;DHT22;62045;49.986;8.672;2023-02-14T18:03:11;16.40;51.50
27258;DHT22;62045;49.986;8.672;2023-02-14T18:08:12;16.30;51.70
27258;DHT22;62045;49.986;8.672;2023-02-14T18:13:14;16.20;51.80
27258;DHT22;62045;49.986;8.672;2023-02-14T18:18:15;16.10;52.00
27258;DHT22;62045;49.986;8.672;2023-02-14T18:23:15;16.00;52.10
27258;DHT22;62045;49.986;8.672;2023-02-14T18:28:18;15.90;52.20
27258;DHT22;62045;49.986;8.672;2023-02-14T18:33:19;15.90;52.30
27258;DHT22;62045;49.986;8.672;2023-02-14T18:38:20;16.10;52.10
27258;DHT22;62045;49.986;8.672;2023-02-14T18:43:22;16.30;51.70
27258;DHT22;62045;49.986;8.672;2023-02-14T18:48:22;16.40;51.50
27258;DHT22;62045;49.986;8.672;2023-02-14T18:53:23;16.40;51.30
27258;DHT22;62045;49.986;8.672;2023-02-14T18:58:25;16.40;51.30
27258;DHT22;62045;49.986;8.672;2023-02-14T19:03:26;16.30;51.40
27258;DHT22;62045;49.986;8.672;2023-02-14T19:08:29;16.30;51.50
27258;DHT22;62045;49.986;8.672;2023-02-14T19:13:31;16.20;51.60
27258;DHT22;62045;49.986;8.672;2023-02-14T19:18:32;16.10;51.80
27258;DHT22;62045;49.986;8.672;2023-02-14T19:23:32;16.00;51.90
27258;DHT22;62045;49.986;8.672;2023-02-14T19:28:34;15.90;52.00
27258;DHT22;62045;49.986;8.672;2023-02-14T19:33:40;15.80;52.20
27258;DHT22;62045;49.986;8.672;2023-02-14T19:38:41;15.80;52.30
27258;DHT22;62045;49.986;8.672;2023-02-14T19:43:44;16.00;52.20
27258;DHT22;62045;49.986;8.672;2023-02-14T19:48:45;16.10;51.80
27258;DHT22;62045;49.986;8.672;2023-02-14T19:53:47;16.30;51.60
27258;DHT22;62045;49.986;8.672;2023-02-14T19:58:50;16.40;52.50
27258;DHT22;62045;49.986;8.672;2023-02-14T20:03:51;16.40;51.70
27258;DHT22;62045;49.986;8.672;2023-02-14T20:08:52;16.40;51.70
27258;DHT22;62045;49.986;8.672;2023-02-14T20:13:55;16.30;51.70
27258;DHT22;62045;49.986;8.672;2023-02-14T20:18:56;16.20;51.70
27258;DHT22;62045;49.986;8.672;2023-02-14T20:23:57;16.20;51.80
27258;DHT22;62045;49.986;8.672;2023-02-14T20:29:01;16.10;51.90
27258;DHT22;62045;49.986;8.672;2023-02-14T20:34:02;16.00;52.00
27258;DHT22;62045;49.986;8.672;2023-02-14T20:39:05;16.00;52.20
27258;DHT22;62045;49.986;8.672;2023-02-14T20:44:10;16.00;52.30
27258;DHT22;62045;49.986;8.672;2023-02-14T20:49:11;16.00;53.00
27258;DHT22;62045;49.986;8.672;2023-02-14T20:54:12;16.10;52.30
27258;DHT22;62045;49.986;8.672;2023-02-14T20:59:14;16.20;52.10
27258;DHT22;62045;49.986;8.672;2023-02-14T21:04:14;16.30;51.90
27258;DHT22;62045;49.986;8.672;2023-02-14T21:09:15;16.30;51.70
27258;DHT22;62045;49.986;8.672;2023-02-14T21:14:18;16.30;51.70
27258;DHT22;62045;49.986;8.672;2023-02-14T21:19:18;16.20;51.80
27258;DHT22;62045;49.986;8.672;2023-02-14T21:24:19;16.10;51.90
27258;DHT22;62045;49.986;8.672;2023-02-14T21:29:21;16.00;52.00
27258;DHT22;62045;49.986;8.672;2023-02-14T21:34:22;16.00;52.10
27258;DHT22;62045;49.986;8.672;2023-02-14T21:39:23;15.90;52.20
27258;DHT22;62045;49.986;8.672;2023-02-14T21:44:25;15.80;52.30
27258;DHT22;62045;49.986;8.672;2023-02-14T21:49:26;15.70;52.30
27258;DHT22;62045;49.986;8.672;2023-02-14T21:54:26;15.60;52.40
27258;DHT22;62045;49.986;8.672;2023-02-14T21:59:28;15.60;52.50
27258;DHT22;62045;49.986;8.672;2023-02-14T22:04:29;15.60;52.50
27258;DHT22;62045;49.986;8.672;2023-02-14T22:09:30;15.50;52.60
27258;DHT22;62045;49.986;8.672;2023-02-14T22:14:32;15.40;52.70
27258;DHT22;62045;49.986;8.672;2023-02-14T22:19:32;15.40;52.80
27258;DHT22;62045;49.986;8.672;2023-02-14T22:24:33;15.40;52.80
27258;DHT22;62045;49.986;8.672;2023-02-14T22:29:35;15.40;52.90
27258;DHT22;62045;49.986;8.672;2023-02-14T22:34:36;15.50;52.80
27258;DHT22;62045;49.986;8.672;2023-02-14T22:39:37;15.60;52.50
27258;DHT22;62045;49.986;8.672;2023-02-14T22:44:39;15.80;52.30
27258;DHT22;62045;49.986;8.672;2023-02-14T22:49:40;16.00;52.00
27258;DHT22;62045;49.986;8.672;2023-02-14T22:54:41;16.00;51.80
27258;DHT22;62045;49.986;8.672;2023-02-14T22:59:43;16.10;51.70
27258;DHT22;62045;49.986;8.672;2023-02-14T23:04:43;16.10;51.70
27258;DHT22;62045;49.986;8.672;2023-02-14T23:09:44;16.10;51.70
27258;DHT22;62045;49.986;8.672;2023-02-14T23:14:46;16.00;51.80
27258;DHT22;62045;49.986;8.672;2023-02-14T23:19:47;15.90;51.90
27258;DHT22;62045;49.986;8.672;2023-02-14T23:24:49;15.80;52.00
27258;DHT22;62045;49.986;8.672;2023-02-14T23:29:51;15.70;52.10
27258;DHT22;62045;49.986;8.672;2023-02-14T23:34:52;15.60;52.90
27258;DHT22;62045;49.986;8.672;2023-02-14T23:39:53;15.60;52.40
27258;DHT22;62045;49.986;8.672;2023-02-14T23:44:55;15.70;52.30
27258;DHT22;62045;49.986;8.672;2023-02-14T23:49:56;15.80;52.10
27258;DHT22;62045;49.986;8.672;2023-02-14T23:54:56;15.90;51.80
27258;DHT22;62045;49.986;8.672;2023-02-14T23:59:58;16.00;51.70
